Terminal Aerodrome Forecast
Issued by NWS

Home | Current Version | Previous Version | Text Only | Print | Product List | Glossary On
Versions: 1 2 3 4 5 6 7 8 9 10 11 12 13 14 15 16 17 18 19
000
FTAK31 PAJN 281721
TAFAWG
TAF
PAWG 281721Z 2818/2918 10003KT 6SM BCFG VCSH FEW001 BKN030 OVC035
     FM281900 07004KT P6SM VCSH SCT025 BKN050 OVC070
     FM290200 12006KT P6SM BKN050 OVC070
     FM291100 12011KT 6SM -RA BKN040 OVC060
      AMD LTD TO CLD VIS AND WIND 2906/2915=

USA.gov is the U.S. government's official web portal to all federal, state and local government web resources and services.